sensor_id;sensor_type;location;lat;lon;timestamp;temperature;humidity
1702;DHT22;848;48.354;10.064;2024-01-15T00:00:29;-0.90;99.90
1702;DHT22;848;48.354;10.064;2024-01-15T00:02:56;-1.00;99.90
1702;DHT22;848;48.354;10.064;2024-01-15T00:05:23;-0.90;99.90
1702;DHT22;848;48.354;10.064;2024-01-15T00:07:49;-0.90;99.90
1702;DHT22;848;48.354;10.064;2024-01-15T00:10:21;-1.00;99.90
1702;DHT22;848;48.354;10.064;2024-01-15T00:12:48;-1.00;99.90
1702;DHT22;848;48.354;10.064;2024-01-15T00:15:15;-1.00;99.90
1702;DHT22;848;48.354;10.064;2024-01-15T00:17:41;-1.00;99.90
1702;DHT22;848;48.354;10.064;2024-01-15T00:20:09;-0.90;99.90
1702;DHT22;848;48.354;10.064;2024-01-15T00:22:36;-1.00;99.90
1702;DHT22;848;48.354;10.064;2024-01-15T00:25:03;-0.80;99.90
1702;DHT22;848;48.354;10.064;2024-01-15T00:27:32;-1.00;99.90
1702;DHT22;848;48.354;10.064;2024-01-15T00:29:59;-1.00;99.90
1702;DHT22;848;48.354;10.064;2024-01-15T00:32:26;-0.90;99.90
1702;DHT22;848;48.354;10.064;2024-01-15T00:34:52;-1.00;99.90
1702;DHT22;848;48.354;10.064;2024-01-15T00:37:19;-1.00;99.90
1702;DHT22;848;48.354;10.064;2024-01-15T00:39:46;-0.90;99.90
1702;DHT22;848;48.354;10.064;2024-01-15T00:42:16;-0.90;99.90
1702;DHT22;848;48.354;10.064;2024-01-15T00:44:44;-0.90;99.90
1702;DHT22;848;48.354;10.064;2024-01-15T00:47:11;-0.80;99.90
1702;DHT22;848;48.354;10.064;2024-01-15T00:49:38;-0.90;99.90
1702;DHT22;848;48.354;10.064;2024-01-15T00:52:05;-0.90;99.90
1702;DHT22;848;48.354;10.064;2024-01-15T00:54:32;-0.80;99.90
1702;DHT22;848;48.354;10.064;2024-01-15T00:56:59;-0.70;99.90
1702;DHT22;848;48.354;10.064;2024-01-15T00:59:26;-0.80;99.90
1702;DHT22;848;48.354;10.064;2024-01-15T01:01:54;-0.70;99.90
1702;DHT22;848;48.354;10.064;2024-01-15T01:04:21;-0.70;99.90
1702;DHT22;848;48.354;10.064;2024-01-15T01:06:48;-0.60;99.90
1702;DHT22;848;48.354;10.064;2024-01-15T01:09:14;-0.50;99.90
1702;DHT22;848;48.354;10.064;2024-01-15T01:11:41;-0.50;99.90
1702;DHT22;848;48.354;10.064;2024-01-15T01:14:08;-0.50;99.90
1702;DHT22;848;48.354;10.064;2024-01-15T01:16:35;-0.40;99.90
1702;DHT22;848;48.354;10.064;2024-01-15T01:19:05;-0.40;99.90
1702;DHT22;848;48.354;10.064;2024-01-15T01:21:33;-0.40;99.90
1702;DHT22;848;48.354;10.064;2024-01-15T01:24:02;-0.40;99.90
1702;DHT22;848;48.354;10.064;2024-01-15T01:26:30;-0.30;99.90
1702;DHT22;848;48.354;10.064;2024-01-15T01:28:57;-0.30;99.90
1702;DHT22;848;48.354;10.064;2024-01-15T01:31:24;-0.30;99.90
1702;DHT22;848;48.354;10.064;2024-01-15T01:33:51;-0.20;99.90
1702;DHT22;848;48.354;10.064;2024-01-15T01:36:19;-0.10;99.90
1702;DHT22;848;48.354;10.064;2024-01-15T01:38:46;-0.20;99.90
1702;DHT22;848;48.354;10.064;2024-01-15T01:41:13;-0.20;99.90
1702;DHT22;848;48.354;10.064;2024-01-15T01:43:40;-0.10;99.90
1702;DHT22;848;48.354;10.064;2024-01-15T01:46:07;-0.30;99.90
1702;DHT22;848;48.354;10.064;2024-01-15T01:48:35;-0.30;99.90
1702;DHT22;848;48.354;10.064;2024-01-15T01:51:06;-0.20;99.90
1702;DHT22;848;48.354;10.064;2024-01-15T01:53:38;-0.20;99.90
1702;DHT22;848;48.354;10.064;2024-01-15T01:56:06;-0.10;99.90
1702;DHT22;848;48.354;10.064;2024-01-15T01:58:33;-0.10;99.90
1702;DHT22;848;48.354;10.064;2024-01-15T02:01:00;0.00;99.90
1702;DHT22;848;48.354;10.064;2024-01-15T02:03:27;0.00;99.90
1702;DHT22;848;48.354;10.064;2024-01-15T02:05:55;0.10;99.90
1702;DHT22;848;48.354;10.064;2024-01-15T02:08:22;0.10;99.90
1702;DHT22;848;48.354;10.064;2024-01-15T02:10:51;0.10;99.90
1702;DHT22;848;48.354;10.064;2024-01-15T02:13:18;0.10;99.90
1702;DHT22;848;48.354;10.064;2024-01-15T02:15:45;0.10;99.90
1702;DHT22;848;48.354;10.064;2024-01-15T02:18:12;0.00;99.90
1702;DHT22;848;48.354;10.064;2024-01-15T02:20:39;0.00;99.90
1702;DHT22;848;48.354;10.064;2024-01-15T02:23:11;0.00;99.90
1702;DHT22;848;48.354;10.064;2024-01-15T02:25:40;-0.10;99.90
1702;DHT22;848;48.354;10.064;2024-01-15T02:28:09;0.00;99.90
1702;DHT22;848;48.354;10.064;2024-01-15T02:30:37;-0.10;99.90
1702;DHT22;848;48.354;10.064;2024-01-15T02:33:05;-0.10;99.90
1702;DHT22;848;48.354;10.064;2024-01-15T02:35:32;-0.20;99.90
1702;DHT22;848;48.354;10.064;2024-01-15T02:37:59;-0.20;99.90
1702;DHT22;848;48.354;10.064;2024-01-15T02:40:28;-0.30;99.90
1702;DHT22;848;48.354;10.064;2024-01-15T02:42:57;-0.40;99.90
1702;DHT22;848;48.354;10.064;2024-01-15T02:45:24;-0.50;99.90
1702;DHT22;848;48.354;10.064;2024-01-15T02:47:51;-0.50;99.90
1702;DHT22;848;48.354;10.064;2024-01-15T02:50:17;-0.50;99.90
1702;DHT22;848;48.354;10.064;2024-01-15T02:52:44;-0.50;99.90
1702;DHT22;848;48.354;10.064;2024-01-15T02:55:11;-0.50;99.90
1702;DHT22;848;48.354;10.064;2024-01-15T02:57:39;-0.50;99.90
1702;DHT22;848;48.354;10.064;2024-01-15T03:00:07;-0.40;99.90
1702;DHT22;848;48.354;10.064;2024-01-15T03:02:37;-0.20;99.90
1702;DHT22;848;48.354;10.064;2024-01-15T03:05:05;-0.20;99.90
1702;DHT22;848;48.354;10.064;2024-01-15T03:07:33;-0.10;99.90
1702;DHT22;848;48.354;10.064;2024-01-15T03:10:00;-0.10;99.90
1702;DHT22;848;48.354;10.064;2024-01-15T03:12:27;-0.10;99.90
1702;DHT22;848;48.354;10.064;2024-01-15T03:14:55;0.00;99.90
1702;DHT22;848;48.354;10.064;2024-01-15T03:17:22;0.00;99.90
1702;DHT22;848;48.354;10.064;2024-01-15T03:19:49;0.00;99.90
1702;DHT22;848;48.354;10.064;2024-01-15T03:22:16;0.00;99.90
1702;DHT22;848;48.354;10.064;2024-01-15T03:24:43;-0.10;99.90
1702;DHT22;848;48.354;10.064;2024-01-15T03:27:10;-0.10;99.90
1702;DHT22;848;48.354;10.064;2024-01-15T03:29:37;-0.20;99.90
1702;DHT22;848;48.354;10.064;2024-01-15T03:32:05;-0.20;99.90
1702;DHT22;848;48.354;10.064;2024-01-15T03:34:32;0.00;99.90
1702;DHT22;848;48.354;10.064;2024-01-15T03:36:59;-0.20;99.90
1702;DHT22;848;48.354;10.064;2024-01-15T03:39:26;0.00;99.90
1702;DHT22;848;48.354;10.064;2024-01-15T03:41:53;-0.10;99.90
1702;DHT22;848;48.354;10.064;2024-01-15T03:44:19;-0.10;99.90
1702;DHT22;848;48.354;10.064;2024-01-15T03:46:46;-0.10;99.90
1702;DHT22;848;48.354;10.064;2024-01-15T03:49:14;-0.10;99.90
1702;DHT22;848;48.354;10.064;2024-01-15T03:51:41;-0.10;99.90
1702;DHT22;848;48.354;10.064;2024-01-15T03:54:10;-0.20;99.90
1702;DHT22;848;48.354;10.064;2024-01-15T03:56:37;-0.10;99.90
1702;DHT22;848;48.354;10.064;2024-01-15T03:59:04;-0.10;99.90
1702;DHT22;848;48.354;10.064;2024-01-15T04:01:31;0.00;99.90
1702;DHT22;848;48.354;10.064;2024-01-15T04:03:57;0.00;99.90
1702;DHT22;848;48.354;10.064;2024-01-15T04:06:26;-0.10;99.90
1702;DHT22;848;48.354;10.064;2024-01-15T04:08:52;0.00;99.90
1702;DHT22;848;48.354;10.064;2024-01-15T04:11:19;-0.10;99.90
1702;DHT22;848;48.354;10.064;2024-01-15T04:13:47;-0.10;99.90
1702;DHT22;848;48.354;10.064;2024-01-15T04:16:14;-0.10;99.90
1702;DHT22;848;48.354;10.064;2024-01-15T04:18:41;-0.10;99.90
1702;DHT22;848;48.354;10.064;2024-01-15T04:21:08;-0.10;99.90
1702;DHT22;848;48.354;10.064;2024-01-15T04:23:36;-0.10;99.90
1702;DHT22;848;48.354;10.064;2024-01-15T04:26:05;0.00;99.90
1702;DHT22;848;48.354;10.064;2024-01-15T04:28:34;0.00;99.90
1702;DHT22;848;48.354;10.064;2024-01-15T04:31:01;0.00;99.90
1702;DHT22;848;48.354;10.064;2024-01-15T04:33:27;0.10;99.90
1702;DHT22;848;48.354;10.064;2024-01-15T04:35:54;0.20;99.90
1702;DHT22;848;48.354;10.064;2024-01-15T04:38:21;0.20;99.90
1702;DHT22;848;48.354;10.064;2024-01-15T04:40:49;0.20;99.90
1702;DHT22;848;48.354;10.064;2024-01-15T04:43:16;0.10;99.90
1702;DHT22;848;48.354;10.064;2024-01-15T04:48:18;0.30;99.90
1702;DHT22;848;48.354;10.064;2024-01-15T04:50:45;0.30;99.90
1702;DHT22;848;48.354;10.064;2024-01-15T04:53:12;0.30;99.90
1702;DHT22;848;48.354;10.064;2024-01-15T04:55:38;0.30;99.90
1702;DHT22;848;48.354;10.064;2024-01-15T04:58:07;0.30;99.90
1702;DHT22;848;48.354;10.064;2024-01-15T05:00:33;0.30;99.90
1702;DHT22;848;48.354;10.064;2024-01-15T05:03:00;0.30;99.90
1702;DHT22;848;48.354;10.064;2024-01-15T05:05:27;0.30;99.90
1702;DHT22;848;48.354;10.064;2024-01-15T05:07:54;0.20;99.90
1702;DHT22;848;48.354;10.064;2024-01-15T05:10:21;0.20;99.90
1702;DHT22;848;48.354;10.064;2024-01-15T05:12:48;0.20;99.90
1702;DHT22;848;48.354;10.064;2024-01-15T05:15:16;0.30;99.90
1702;DHT22;848;48.354;10.064;2024-01-15T05:17:43;0.30;99.90
1702;DHT22;848;48.354;10.064;2024-01-15T05:20:11;0.30;99.90
1702;DHT22;848;48.354;10.064;2024-01-15T05:22:37;0.40;99.90
1702;DHT22;848;48.354;10.064;2024-01-15T05:25:05;0.40;99.90
1702;DHT22;848;48.354;10.064;2024-01-15T05:27:32;0.40;99.90
1702;DHT22;848;48.354;10.064;2024-01-15T05:29:59;0.50;99.90
1702;DHT22;848;48.354;10.064;2024-01-15T05:32:27;0.40;99.90
1702;DHT22;848;48.354;10.064;2024-01-15T05:34:55;0.40;99.90
1702;DHT22;848;48.354;10.064;2024-01-15T05:37:21;0.60;99.90
1702;DHT22;848;48.354;10.064;2024-01-15T05:39:48;0.60;99.90
1702;DHT22;848;48.354;10.064;2024-01-15T05:42:15;0.60;99.90
1702;DHT22;848;48.354;10.064;2024-01-15T05:44:42;0.50;99.90
1702;DHT22;848;48.354;10.064;2024-01-15T05:47:09;0.50;99.90
1702;DHT22;848;48.354;10.064;2024-01-15T05:49:37;0.50;99.90
1702;DHT22;848;48.354;10.064;2024-01-15T05:52:04;0.50;99.90
1702;DHT22;848;48.354;10.064;2024-01-15T05:54:31;0.50;99.90
1702;DHT22;848;48.354;10.064;2024-01-15T05:56:58;0.50;99.90
1702;DHT22;848;48.354;10.064;2024-01-15T05:59:25;0.50;99.90
1702;DHT22;848;48.354;10.064;2024-01-15T06:01:52;0.50;99.90
1702;DHT22;848;48.354;10.064;2024-01-15T06:04:18;0.60;99.90
1702;DHT22;848;48.354;10.064;2024-01-15T06:06:47;0.60;99.90
1702;DHT22;848;48.354;10.064;2024-01-15T06:09:13;0.60;99.90
1702;DHT22;848;48.354;10.064;2024-01-15T06:11:40;0.60;99.90
1702;DHT22;848;48.354;10.064;2024-01-15T06:14:07;0.60;99.90
1702;DHT22;848;48.354;10.064;2024-01-15T06:16:34;0.70;99.90
1702;DHT22;848;48.354;10.064;2024-01-15T06:19:01;0.60;99.90
1702;DHT22;848;48.354;10.064;2024-01-15T06:21:28;0.60;99.90
1702;DHT22;848;48.354;10.064;2024-01-15T06:23:56;0.60;99.90
1702;DHT22;848;48.354;10.064;2024-01-15T06:26:23;0.50;99.90
1702;DHT22;848;48.354;10.064;2024-01-15T06:28:50;0.50;99.90
1702;DHT22;848;48.354;10.064;2024-01-15T06:31:17;0.50;99.90
1702;DHT22;848;48.354;10.064;2024-01-15T06:33:44;0.60;99.90
1702;DHT22;848;48.354;10.064;2024-01-15T06:36:12;0.40;99.90
1702;DHT22;848;48.354;10.064;2024-01-15T06:38:39;0.40;99.90
1702;DHT22;848;48.354;10.064;2024-01-15T06:41:08;0.40;99.90
1702;DHT22;848;48.354;10.064;2024-01-15T06:43:35;0.40;99.90
1702;DHT22;848;48.354;10.064;2024-01-15T06:46:01;0.40;99.90
1702;DHT22;848;48.354;10.064;2024-01-15T06:48:28;0.40;99.90
1702;DHT22;848;48.354;10.064;2024-01-15T06:50:55;0.40;99.90
1702;DHT22;848;48.354;10.064;2024-01-15T06:53:22;0.50;99.90
1702;DHT22;848;48.354;10.064;2024-01-15T06:55:49;0.60;99.90
1702;DHT22;848;48.354;10.064;2024-01-15T06:58:18;0.60;99.90
1702;DHT22;848;48.354;10.064;2024-01-15T07:00:45;0.70;99.90
1702;DHT22;848;48.354;10.064;2024-01-15T07:03:11;0.70;99.90
1702;DHT22;848;48.354;10.064;2024-01-15T07:05:38;0.70;99.90
1702;DHT22;848;48.354;10.064;2024-01-15T07:08:05;0.70;99.90
1702;DHT22;848;48.354;10.064;2024-01-15T07:10:32;0.60;99.90
1702;DHT22;848;48.354;10.064;2024-01-15T07:12:59;0.50;99.90
1702;DHT22;848;48.354;10.064;2024-01-15T07:15:27;0.50;99.90
1702;DHT22;848;48.354;10.064;2024-01-15T07:17:54;0.60;99.90
1702;DHT22;848;48.354;10.064;2024-01-15T07:20:22;0.60;99.90
1702;DHT22;848;48.354;10.064;2024-01-15T07:22:49;0.60;99.90
1702;DHT22;848;48.354;10.064;2024-01-15T07:25:16;0.60;99.90
1702;DHT22;848;48.354;10.064;2024-01-15T07:27:43;0.70;99.90
1702;DHT22;848;48.354;10.064;2024-01-15T07:30:11;0.60;99.90
1702;DHT22;848;48.354;10.064;2024-01-15T07:32:39;0.60;99.90
1702;DHT22;848;48.354;10.064;2024-01-15T07:35:08;0.60;99.90
1702;DHT22;848;48.354;10.064;2024-01-15T07:37:36;0.70;99.90
1702;DHT22;848;48.354;10.064;2024-01-15T07:40:03;0.70;99.90
1702;DHT22;848;48.354;10.064;2024-01-15T07:42:32;0.70;99.90
1702;DHT22;848;48.354;10.064;2024-01-15T07:45:02;0.70;99.90
1702;DHT22;848;48.354;10.064;2024-01-15T07:47:29;0.70;99.90
1702;DHT22;848;48.354;10.064;2024-01-15T07:49:57;0.70;99.90
1702;DHT22;848;48.354;10.064;2024-01-15T07:52:24;0.80;99.90
1702;DHT22;848;48.354;10.064;2024-01-15T07:54:51;0.80;99.90
1702;DHT22;848;48.354;10.064;2024-01-15T07:57:18;0.80;99.90
1702;DHT22;848;48.354;10.064;2024-01-15T07:59:44;0.70;99.90
1702;DHT22;848;48.354;10.064;2024-01-15T08:02:11;0.80;99.90
1702;DHT22;848;48.354;10.064;2024-01-15T08:04:38;0.80;99.90
1702;DHT22;848;48.354;10.064;2024-01-15T08:07:06;0.80;99.90
1702;DHT22;848;48.354;10.064;2024-01-15T08:09:33;0.80;99.90
1702;DHT22;848;48.354;10.064;2024-01-15T08:12:00;0.90;99.90
1702;DHT22;848;48.354;10.064;2024-01-15T08:14:27;1.00;99.90
1702;DHT22;848;48.354;10.064;2024-01-15T08:16:54;0.90;99.90
1702;DHT22;848;48.354;10.064;2024-01-15T08:19:21;1.00;99.90
1702;DHT22;848;48.354;10.064;2024-01-15T08:21:47;1.10;99.90
1702;DHT22;848;48.354;10.064;2024-01-15T08:24:16;1.00;99.90
1702;DHT22;848;48.354;10.064;2024-01-15T08:26:43;1.10;99.90
1702;DHT22;848;48.354;10.064;2024-01-15T08:29:11;1.00;99.90
1702;DHT22;848;48.354;10.064;2024-01-15T08:31:37;1.10;99.90
1702;DHT22;848;48.354;10.064;2024-01-15T08:34:04;1.10;99.90
1702;DHT22;848;48.354;10.064;2024-01-15T08:36:31;1.10;99.90
1702;DHT22;848;48.354;10.064;2024-01-15T08:39:00;1.20;99.90
1702;DHT22;848;48.354;10.064;2024-01-15T08:41:28;1.30;99.90
1702;DHT22;848;48.354;10.064;2024-01-15T08:43:55;1.30;99.90
1702;DHT22;848;48.354;10.064;2024-01-15T08:46:22;1.40;99.90
1702;DHT22;848;48.354;10.064;2024-01-15T08:48:49;1.20;99.90
1702;DHT22;848;48.354;10.064;2024-01-15T08:51:16;1.10;99.90
1702;DHT22;848;48.354;10.064;2024-01-15T08:53:44;1.10;99.90
1702;DHT22;848;48.354;10.064;2024-01-15T08:56:10;1.10;99.90
1702;DHT22;848;48.354;10.064;2024-01-15T08:58:39;1.20;99.90
1702;DHT22;848;48.354;10.064;2024-01-15T09:01:06;1.30;99.90
1702;DHT22;848;48.354;10.064;2024-01-15T09:03:32;1.50;99.90
1702;DHT22;848;48.354;10.064;2024-01-15T09:06:00;1.70;99.90
1702;DHT22;848;48.354;10.064;2024-01-15T09:08:27;1.80;99.90
1702;DHT22;848;48.354;10.064;2024-01-15T09:10:54;1.90;99.90
1702;DHT22;848;48.354;10.064;2024-01-15T09:13:21;1.90;99.90
1702;DHT22;848;48.354;10.064;2024-01-15T09:15:49;1.90;99.90
1702;DHT22;848;48.354;10.064;2024-01-15T09:18:16;1.80;99.90
1702;DHT22;848;48.354;10.064;2024-01-15T09:20:42;1.80;99.90
1702;DHT22;848;48.354;10.064;2024-01-15T09:23:09;1.60;99.90
1702;DHT22;848;48.354;10.064;2024-01-15T09:25:36;1.70;99.90
1702;DHT22;848;48.354;10.064;2024-01-15T09:28:03;1.60;99.90
1702;DHT22;848;48.354;10.064;2024-01-15T09:30:30;1.60;99.90
1702;DHT22;848;48.354;10.064;2024-01-15T09:32:59;1.60;99.90
1702;DHT22;848;48.354;10.064;2024-01-15T09:35:25;1.70;99.90
1702;DHT22;848;48.354;10.064;2024-01-15T09:37:52;1.70;99.90
1702;DHT22;848;48.354;10.064;2024-01-15T09:40:20;1.70;99.90
1702;DHT22;848;48.354;10.064;2024-01-15T09:42:47;1.70;99.90
1702;DHT22;848;48.354;10.064;2024-01-15T09:45:15;1.70;99.90
1702;DHT22;848;48.354;10.064;2024-01-15T09:47:42;1.60;99.90
1702;DHT22;848;48.354;10.064;2024-01-15T09:50:11;1.80;99.90
1702;DHT22;848;48.354;10.064;2024-01-15T09:52:38;1.90;99.90
1702;DHT22;848;48.354;10.064;2024-01-15T09:55:08;2.00;99.90
1702;DHT22;848;48.354;10.064;2024-01-15T09:57:36;2.10;99.90
1702;DHT22;848;48.354;10.064;2024-01-15T10:00:04;2.10;99.90
1702;DHT22;848;48.354;10.064;2024-01-15T10:02:32;2.20;99.90
1702;DHT22;848;48.354;10.064;2024-01-15T10:04:59;2.30;99.90
1702;DHT22;848;48.354;10.064;2024-01-15T10:07:29;2.30;99.90
1702;DHT22;848;48.354;10.064;2024-01-15T10:09:56;2.30;99.90
1702;DHT22;848;48.354;10.064;2024-01-15T10:12:23;2.10;99.90
1702;DHT22;848;48.354;10.064;2024-01-15T10:14:50;2.20;99.90
1702;DHT22;848;48.354;10.064;2024-01-15T10:17:17;2.30;99.90
1702;DHT22;848;48.354;10.064;2024-01-15T10:19:45;2.30;99.90
1702;DHT22;848;48.354;10.064;2024-01-15T10:22:13;2.20;99.90
1702;DHT22;848;48.354;10.064;2024-01-15T10:24:41;2.30;99.90
1702;DHT22;848;48.354;10.064;2024-01-15T10:27:09;2.30;99.90
1702;DHT22;848;48.354;10.064;2024-01-15T10:29:36;2.40;99.90
1702;DHT22;848;48.354;10.064;2024-01-15T10:32:06;2.40;99.90
1702;DHT22;848;48.354;10.064;2024-01-15T10:34:33;2.30;99.90
1702;DHT22;848;48.354;10.064;2024-01-15T10:37:03;2.30;99.90
1702;DHT22;848;48.354;10.064;2024-01-15T10:39:31;2.40;99.90
1702;DHT22;848;48.354;10.064;2024-01-15T10:41:59;2.40;99.90
1702;DHT22;848;48.354;10.064;2024-01-15T10:44:26;2.40;99.90
1702;DHT22;848;48.354;10.064;2024-01-15T10:46:54;2.50;99.90
1702;DHT22;848;48.354;10.064;2024-01-15T10:49:22;2.60;99.90
1702;DHT22;848;48.354;10.064;2024-01-15T10:51:52;2.80;99.90
1702;DHT22;848;48.354;10.064;2024-01-15T10:54:21;2.90;99.90
1702;DHT22;848;48.354;10.064;2024-01-15T10:56:50;3.00;99.90
1702;DHT22;848;48.354;10.064;2024-01-15T10:59:20;3.00;99.90
1702;DHT22;848;48.354;10.064;2024-01-15T11:01:49;3.10;99.90
1702;DHT22;848;48.354;10.064;2024-01-15T11:04:16;3.10;99.90
1702;DHT22;848;48.354;10.064;2024-01-15T11:06:45;3.20;99.90
1702;DHT22;848;48.354;10.064;2024-01-15T11:09:13;3.30;99.90
1702;DHT22;848;48.354;10.064;2024-01-15T11:11:41;3.40;99.90
1702;DHT22;848;48.354;10.064;2024-01-15T11:14:09;3.30;99.90
1702;DHT22;848;48.354;10.064;2024-01-15T11:17:04;3.30;99.90
1702;DHT22;848;48.354;10.064;2024-01-15T11:19:37;3.20;99.90
1702;DHT22;848;48.354;10.064;2024-01-15T11:22:07;3.20;99.90
1702;DHT22;848;48.354;10.064;2024-01-15T11:24:35;3.20;99.90
1702;DHT22;848;48.354;10.064;2024-01-15T11:27:03;3.20;99.90
1702;DHT22;848;48.354;10.064;2024-01-15T11:29:31;3.10;99.90
1702;DHT22;848;48.354;10.064;2024-01-15T11:32:01;3.20;99.90
1702;DHT22;848;48.354;10.064;2024-01-15T11:34:54;3.30;99.90
1702;DHT22;848;48.354;10.064;2024-01-15T11:37:24;3.30;99.90
1702;DHT22;848;48.354;10.064;2024-01-15T11:39:54;3.40;99.90
1702;DHT22;848;48.354;10.064;2024-01-15T11:42:22;3.40;99.90
1702;DHT22;848;48.354;10.064;2024-01-15T11:44:49;3.40;99.90
1702;DHT22;848;48.354;10.064;2024-01-15T11:47:29;3.50;99.90
1702;DHT22;848;48.354;10.064;2024-01-15T11:50:02;3.40;99.90
1702;DHT22;848;48.354;10.064;2024-01-15T11:52:34;3.30;99.90
1702;DHT22;848;48.354;10.064;2024-01-15T11:55:10;3.30;99.90
1702;DHT22;848;48.354;10.064;2024-01-15T11:57:44;3.40;99.90
1702;DHT22;848;48.354;10.064;2024-01-15T12:00:13;3.20;99.90
1702;DHT22;848;48.354;10.064;2024-01-15T12:02:40;3.20;99.90
1702;DHT22;848;48.354;10.064;2024-01-15T12:05:09;3.20;99.90
1702;DHT22;848;48.354;10.064;2024-01-15T12:07:38;3.20;99.90
1702;DHT22;848;48.354;10.064;2024-01-15T12:10:09;3.20;99.90
1702;DHT22;848;48.354;10.064;2024-01-15T12:12:47;3.20;99.90
1702;DHT22;848;48.354;10.064;2024-01-15T12:15:16;3.20;99.90
1702;DHT22;848;48.354;10.064;2024-01-15T12:17:46;3.10;99.90
1702;DHT22;848;48.354;10.064;2024-01-15T12:20:15;3.00;99.90
1702;DHT22;848;48.354;10.064;2024-01-15T12:22:42;2.90;99.90
1702;DHT22;848;48.354;10.064;2024-01-15T12:25:09;2.90;99.90
1702;DHT22;848;48.354;10.064;2024-01-15T12:27:37;2.90;99.90
1702;DHT22;848;48.354;10.064;2024-01-15T12:30:07;2.90;99.90
1702;DHT22;848;48.354;10.064;2024-01-15T12:32:34;3.00;99.90
1702;DHT22;848;48.354;10.064;2024-01-15T12:35:02;3.00;99.90
1702;DHT22;848;48.354;10.064;2024-01-15T12:37:31;3.10;99.90
1702;DHT22;848;48.354;10.064;2024-01-15T12:40:01;3.10;99.90
1702;DHT22;848;48.354;10.064;2024-01-15T12:42:28;3.20;99.90
1702;DHT22;848;48.354;10.064;2024-01-15T12:44:56;3.20;99.90
1702;DHT22;848;48.354;10.064;2024-01-15T12:47:23;3.10;99.90
1702;DHT22;848;48.354;10.064;2024-01-15T12:49:51;3.10;99.90
1702;DHT22;848;48.354;10.064;2024-01-15T12:52:20;3.00;99.90
1702;DHT22;848;48.354;10.064;2024-01-15T12:54:48;3.10;99.90
1702;DHT22;848;48.354;10.064;2024-01-15T12:57:16;3.10;99.90
1702;DHT22;848;48.354;10.064;2024-01-15T12:59:43;3.00;99.90
1702;DHT22;848;48.354;10.064;2024-01-15T13:02:10;2.90;99.90
1702;DHT22;848;48.354;10.064;2024-01-15T13:04:37;2.90;99.90
1702;DHT22;848;48.354;10.064;2024-01-15T13:07:05;3.00;99.90
1702;DHT22;848;48.354;10.064;2024-01-15T13:09:32;3.00;99.90
1702;DHT22;848;48.354;10.064;2024-01-15T13:12:00;3.00;99.90
1702;DHT22;848;48.354;10.064;2024-01-15T13:14:28;3.00;99.90
1702;DHT22;848;48.354;10.064;2024-01-15T13:16:55;3.00;99.90
1702;DHT22;848;48.354;10.064;2024-01-15T13:19:22;3.00;99.90
1702;DHT22;848;48.354;10.064;2024-01-15T13:21:49;3.00;99.90
1702;DHT22;848;48.354;10.064;2024-01-15T13:24:16;3.10;99.90
1702;DHT22;848;48.354;10.064;2024-01-15T13:26:43;3.10;99.90
1702;DHT22;848;48.354;10.064;2024-01-15T13:29:12;3.20;99.90
1702;DHT22;848;48.354;10.064;2024-01-15T13:31:39;3.10;99.90
1702;DHT22;848;48.354;10.064;2024-01-15T13:34:06;3.10;99.90
1702;DHT22;848;48.354;10.064;2024-01-15T13:36:33;3.00;99.90
1702;DHT22;848;48.354;10.064;2024-01-15T13:39:00;2.90;99.90
1702;DHT22;848;48.354;10.064;2024-01-15T13:41:26;3.00;99.90
1702;DHT22;848;48.354;10.064;2024-01-15T13:43:55;3.00;99.90
1702;DHT22;848;48.354;10.064;2024-01-15T13:46:25;3.00;99.90
1702;DHT22;848;48.354;10.064;2024-01-15T13:48:53;3.00;99.90
1702;DHT22;848;48.354;10.064;2024-01-15T13:51:22;2.90;99.90
1702;DHT22;848;48.354;10.064;2024-01-15T13:53:49;2.80;99.90
1702;DHT22;848;48.354;10.064;2024-01-15T13:56:16;2.80;99.90
1702;DHT22;848;48.354;10.064;2024-01-15T13:58:43;2.80;99.90
1702;DHT22;848;48.354;10.064;2024-01-15T14:01:09;2.80;99.90
1702;DHT22;848;48.354;10.064;2024-01-15T14:03:38;2.70;99.90
1702;DHT22;848;48.354;10.064;2024-01-15T14:06:05;2.60;99.90
1702;DHT22;848;48.354;10.064;2024-01-15T14:08:34;2.60;99.90
1702;DHT22;848;48.354;10.064;2024-01-15T14:11:04;2.50;99.90
1702;DHT22;848;48.354;10.064;2024-01-15T14:13:32;2.40;99.90
1702;DHT22;848;48.354;10.064;2024-01-15T14:15:59;2.20;99.90
1702;DHT22;848;48.354;10.064;2024-01-15T14:18:26;2.20;99.90
1702;DHT22;848;48.354;10.064;2024-01-15T14:20:55;2.30;99.90
1702;DHT22;848;48.354;10.064;2024-01-15T14:23:22;2.30;99.90
1702;DHT22;848;48.354;10.064;2024-01-15T14:25:48;2.20;99.90
1702;DHT22;848;48.354;10.064;2024-01-15T14:28:15;2.00;99.90
1702;DHT22;848;48.354;10.064;2024-01-15T14:30:42;1.90;99.90
1702;DHT22;848;48.354;10.064;2024-01-15T14:33:09;1.90;99.90
1702;DHT22;848;48.354;10.064;2024-01-15T14:35:36;2.00;99.90
1702;DHT22;848;48.354;10.064;2024-01-15T14:38:05;1.80;99.90
1702;DHT22;848;48.354;10.064;2024-01-15T14:40:33;1.80;99.90
1702;DHT22;848;48.354;10.064;2024-01-15T14:43:03;1.70;99.90
1702;DHT22;848;48.354;10.064;2024-01-15T14:45:30;1.60;99.90
1702;DHT22;848;48.354;10.064;2024-01-15T14:47:57;1.70;99.90
1702;DHT22;848;48.354;10.064;2024-01-15T14:50:24;1.70;99.90
1702;DHT22;848;48.354;10.064;2024-01-15T14:52:51;1.70;99.90
1702;DHT22;848;48.354;10.064;2024-01-15T14:55:20;1.70;99.90
1702;DHT22;848;48.354;10.064;2024-01-15T14:57:49;1.70;99.90
1702;DHT22;848;48.354;10.064;2024-01-15T15:00:16;1.60;99.90
1702;DHT22;848;48.354;10.064;2024-01-15T15:02:43;1.60;99.90
1702;DHT22;848;48.354;10.064;2024-01-15T15:05:10;1.60;99.90
1702;DHT22;848;48.354;10.064;2024-01-15T15:07:39;1.60;99.90
1702;DHT22;848;48.354;10.064;2024-01-15T15:10:07;1.50;99.90
1702;DHT22;848;48.354;10.064;2024-01-15T15:12:36;1.60;99.90
1702;DHT22;848;48.354;10.064;2024-01-15T15:15:03;1.50;99.90
1702;DHT22;848;48.354;10.064;2024-01-15T15:17:30;1.50;99.90
1702;DHT22;848;48.354;10.064;2024-01-15T15:19:57;1.50;99.90
1702;DHT22;848;48.354;10.064;2024-01-15T15:22:24;1.60;99.90
1702;DHT22;848;48.354;10.064;2024-01-15T15:24:51;1.60;99.90
1702;DHT22;848;48.354;10.064;2024-01-15T15:27:18;1.60;99.90
1702;DHT22;848;48.354;10.064;2024-01-15T15:29:46;1.60;99.90
1702;DHT22;848;48.354;10.064;2024-01-15T15:32:16;1.60;99.90
1702;DHT22;848;48.354;10.064;2024-01-15T15:34:42;1.50;99.90
1702;DHT22;848;48.354;10.064;2024-01-15T15:37:09;1.60;99.90
1702;DHT22;848;48.354;10.064;2024-01-15T15:39:36;1.60;99.90
1702;DHT22;848;48.354;10.064;2024-01-15T15:42:03;1.60;99.90
1702;DHT22;848;48.354;10.064;2024-01-15T15:44:30;1.60;99.90
1702;DHT22;848;48.354;10.064;2024-01-15T15:46:58;1.50;99.90
1702;DHT22;848;48.354;10.064;2024-01-15T15:49:25;1.50;99.90
1702;DHT22;848;48.354;10.064;2024-01-15T15:51:52;1.40;99.90
1702;DHT22;848;48.354;10.064;2024-01-15T15:54:19;1.40;99.90
1702;DHT22;848;48.354;10.064;2024-01-15T15:56:48;1.40;99.90
1702;DHT22;848;48.354;10.064;2024-01-15T15:59:15;1.30;99.90
1702;DHT22;848;48.354;10.064;2024-01-15T16:01:44;1.30;99.90
1702;DHT22;848;48.354;10.064;2024-01-15T16:04:13;1.30;99.90
1702;DHT22;848;48.354;10.064;2024-01-15T16:06:40;1.40;99.90
1702;DHT22;848;48.354;10.064;2024-01-15T16:09:08;1.30;99.90
1702;DHT22;848;48.354;10.064;2024-01-15T16:11:36;1.30;99.90
1702;DHT22;848;48.354;10.064;2024-01-15T16:14:04;1.30;99.90
1702;DHT22;848;48.354;10.064;2024-01-15T16:16:31;1.20;99.90
1702;DHT22;848;48.354;10.064;2024-01-15T16:18:58;1.20;99.90